sensor_id;sensor_type;location;lat;lon;timestamp;P1;durP1;ratioP1;P2;durP2;ratioP2
74541;SDS011;63015;45.378;20.360;2024-01-10T00:00:57;75.28;;;26.08;;
74541;SDS011;63015;45.378;20.360;2024-01-10T00:02:57;64.45;;;26.00;;
74541;SDS011;63015;45.378;20.360;2024-01-10T00:04:57;57.70;;;24.10;;
74541;SDS011;63015;45.378;20.360;2024-01-10T00:06:58;64.80;;;24.67;;
74541;SDS011;63015;45.378;20.360;2024-01-10T00:08:58;60.65;;;24.25;;
74541;SDS011;63015;45.378;20.360;2024-01-10T00:10:59;90.70;;;32.30;;
74541;SDS011;63015;45.378;20.360;2024-01-10T00:12:59;73.20;;;28.50;;
74541;SDS011;63015;45.378;20.360;2024-01-10T00:15:00;71.30;;;25.77;;
74541;SDS011;63015;45.378;20.360;2024-01-10T00:17:02;85.47;;;30.02;;
74541;SDS011;63015;45.378;20.360;2024-01-10T00:19:02;76.28;;;27.20;;
74541;SDS011;63015;45.378;20.360;2024-01-10T00:21:03;59.10;;;24.30;;
74541;SDS011;63015;45.378;20.360;2024-01-10T00:23:03;66.07;;;23.98;;
74541;SDS011;63015;45.378;20.360;2024-01-10T00:25:04;57.88;;;21.35;;
74541;SDS011;63015;45.378;20.360;2024-01-10T00:27:04;56.40;;;23.15;;
74541;SDS011;63015;45.378;20.360;2024-01-10T00:29:05;60.42;;;22.67;;
74541;SDS011;63015;45.378;20.360;2024-01-10T00:31:05;60.45;;;21.83;;
74541;SDS011;63015;45.378;20.360;2024-01-10T00:33:06;58.03;;;25.33;;
74541;SDS011;63015;45.378;20.360;2024-01-10T00:35:06;63.03;;;24.60;;
74541;SDS011;63015;45.378;20.360;2024-01-10T00:37:07;78.43;;;28.45;;
74541;SDS011;63015;45.378;20.360;2024-01-10T00:39:08;103.03;;;36.72;;
74541;SDS011;63015;45.378;20.360;2024-01-10T00:41:08;102.30;;;36.40;;
74541;SDS011;63015;45.378;20.360;2024-01-10T00:43:09;76.90;;;28.73;;
74541;SDS011;63015;45.378;20.360;2024-01-10T00:45:09;69.18;;;25.92;;
74541;SDS011;63015;45.378;20.360;2024-01-10T00:47:11;61.38;;;23.77;;
74541;SDS011;63015;45.378;20.360;2024-01-10T00:49:11;65.07;;;26.40;;
74541;SDS011;63015;45.378;20.360;2024-01-10T00:51:12;155.27;;;50.15;;
74541;SDS011;63015;45.378;20.360;2024-01-10T00:53:12;132.88;;;45.17;;
74541;SDS011;63015;45.378;20.360;2024-01-10T00:55:13;103.30;;;34.25;;
74541;SDS011;63015;45.378;20.360;2024-01-10T00:57:13;75.85;;;27.88;;
74541;SDS011;63015;45.378;20.360;2024-01-10T00:59:14;64.30;;;22.73;;
74541;SDS011;63015;45.378;20.360;2024-01-10T01:01:15;130.85;;;44.05;;
74541;SDS011;63015;45.378;20.360;2024-01-10T01:03:15;137.43;;;45.42;;
74541;SDS011;63015;45.378;20.360;2024-01-10T01:05:16;94.28;;;35.80;;
74541;SDS011;63015;45.378;20.360;2024-01-10T01:07:16;96.50;;;39.22;;
74541;SDS011;63015;45.378;20.360;2024-01-10T01:09:17;70.63;;;28.88;;
74541;SDS011;63015;45.378;20.360;2024-01-10T01:11:18;65.30;;;28.88;;
74541;SDS011;63015;45.378;20.360;2024-01-10T01:13:18;62.17;;;27.85;;
74541;SDS011;63015;45.378;20.360;2024-01-10T01:15:19;56.17;;;22.83;;
74541;SDS011;63015;45.378;20.360;2024-01-10T01:17:19;50.80;;;20.80;;
74541;SDS011;63015;45.378;20.360;2024-01-10T01:19:20;27.08;;;12.05;;
74541;SDS011;63015;45.378;20.360;2024-01-10T01:21:20;48.90;;;20.58;;
74541;SDS011;63015;45.378;20.360;2024-01-10T01:23:21;58.50;;;21.92;;
74541;SDS011;63015;45.378;20.360;2024-01-10T01:25:21;44.22;;;18.55;;
74541;SDS011;63015;45.378;20.360;2024-01-10T01:27:22;45.15;;;18.35;;
74541;SDS011;63015;45.378;20.360;2024-01-10T01:29:23;47.00;;;18.67;;
74541;SDS011;63015;45.378;20.360;2024-01-10T01:31:24;38.30;;;16.08;;
74541;SDS011;63015;45.378;20.360;2024-01-10T01:33:24;38.25;;;13.63;;
74541;SDS011;63015;45.378;20.360;2024-01-10T01:35:25;39.50;;;15.38;;
74541;SDS011;63015;45.378;20.360;2024-01-10T01:37:26;28.80;;;11.52;;
74541;SDS011;63015;45.378;20.360;2024-01-10T01:39:26;14.95;;;6.00;;
74541;SDS011;63015;45.378;20.360;2024-01-10T01:41:26;30.02;;;12.73;;
74541;SDS011;63015;45.378;20.360;2024-01-10T01:43:27;23.08;;;11.05;;
74541;SDS011;63015;45.378;20.360;2024-01-10T01:45:27;26.85;;;11.18;;
74541;SDS011;63015;45.378;20.360;2024-01-10T01:47:28;15.15;;;6.68;;
74541;SDS011;63015;45.378;20.360;2024-01-10T01:49:28;28.45;;;11.05;;
74541;SDS011;63015;45.378;20.360;2024-01-10T01:51:29;22.20;;;9.57;;
74541;SDS011;63015;45.378;20.360;2024-01-10T01:53:33;28.95;;;12.02;;
74541;SDS011;63015;45.378;20.360;2024-01-10T01:55:35;34.40;;;13.90;;
74541;SDS011;63015;45.378;20.360;2024-01-10T01:57:37;31.75;;;12.43;;
74541;SDS011;63015;45.378;20.360;2024-01-10T01:59:38;32.53;;;13.55;;
74541;SDS011;63015;45.378;20.360;2024-01-10T02:01:38;34.05;;;14.98;;
74541;SDS011;63015;45.378;20.360;2024-01-10T02:03:40;40.42;;;16.08;;
74541;SDS011;63015;45.378;20.360;2024-01-10T02:05:40;31.45;;;14.63;;
74541;SDS011;63015;45.378;20.360;2024-01-10T02:07:41;32.55;;;14.32;;
74541;SDS011;63015;45.378;20.360;2024-01-10T02:09:41;37.60;;;13.98;;
74541;SDS011;63015;45.378;20.360;2024-01-10T02:11:42;36.28;;;13.85;;
74541;SDS011;63015;45.378;20.360;2024-01-10T02:13:43;34.33;;;13.13;;
74541;SDS011;63015;45.378;20.360;2024-01-10T02:15:43;35.55;;;14.27;;
74541;SDS011;63015;45.378;20.360;2024-01-10T02:17:44;30.25;;;13.25;;
74541;SDS011;63015;45.378;20.360;2024-01-10T02:19:45;34.92;;;14.07;;
74541;SDS011;63015;45.378;20.360;2024-01-10T02:21:45;30.35;;;13.70;;
74541;SDS011;63015;45.378;20.360;2024-01-10T02:23:46;29.15;;;12.63;;
74541;SDS011;63015;45.378;20.360;2024-01-10T02:25:46;34.80;;;13.48;;
74541;SDS011;63015;45.378;20.360;2024-01-10T02:27:47;30.38;;;9.80;;
74541;SDS011;63015;45.378;20.360;2024-01-10T02:29:47;19.50;;;7.85;;
74541;SDS011;63015;45.378;20.360;2024-01-10T02:31:48;31.65;;;12.27;;
74541;SDS011;63015;45.378;20.360;2024-01-10T02:33:48;25.35;;;11.38;;
74541;SDS011;63015;45.378;20.360;2024-01-10T02:35:49;28.92;;;11.30;;
74541;SDS011;63015;45.378;20.360;2024-01-10T02:37:50;29.20;;;12.52;;
74541;SDS011;63015;45.378;20.360;2024-01-10T02:39:51;28.55;;;12.20;;
74541;SDS011;63015;45.378;20.360;2024-01-10T02:41:52;30.80;;;12.45;;
74541;SDS011;63015;45.378;20.360;2024-01-10T02:43:52;26.92;;;11.02;;
74541;SDS011;63015;45.378;20.360;2024-01-10T02:45:53;36.42;;;13.50;;
74541;SDS011;63015;45.378;20.360;2024-01-10T02:47:53;29.65;;;11.45;;
74541;SDS011;63015;45.378;20.360;2024-01-10T02:49:54;32.53;;;11.88;;
74541;SDS011;63015;45.378;20.360;2024-01-10T02:51:54;28.08;;;10.57;;
74541;SDS011;63015;45.378;20.360;2024-01-10T02:53:55;29.40;;;12.52;;
74541;SDS011;63015;45.378;20.360;2024-01-10T02:55:55;25.45;;;11.35;;
74541;SDS011;63015;45.378;20.360;2024-01-10T02:57:56;27.80;;;10.55;;
74541;SDS011;63015;45.378;20.360;2024-01-10T02:59:56;30.02;;;13.27;;
74541;SDS011;63015;45.378;20.360;2024-01-10T03:01:57;31.60;;;13.13;;
74541;SDS011;63015;45.378;20.360;2024-01-10T03:03:57;27.90;;;11.63;;
74541;SDS011;63015;45.378;20.360;2024-01-10T03:05:58;27.88;;;13.65;;
74541;SDS011;63015;45.378;20.360;2024-01-10T03:07:58;27.25;;;11.90;;
74541;SDS011;63015;45.378;20.360;2024-01-10T03:10:01;30.38;;;11.15;;
74541;SDS011;63015;45.378;20.360;2024-01-10T03:12:01;32.20;;;13.43;;
74541;SDS011;63015;45.378;20.360;2024-01-10T03:14:03;26.65;;;12.57;;
74541;SDS011;63015;45.378;20.360;2024-01-10T03:16:07;25.80;;;11.00;;
74541;SDS011;63015;45.378;20.360;2024-01-10T03:18:07;29.65;;;11.85;;
74541;SDS011;63015;45.378;20.360;2024-01-10T03:20:08;24.52;;;10.15;;
74541;SDS011;63015;45.378;20.360;2024-01-10T03:22:09;24.05;;;10.00;;
74541;SDS011;63015;45.378;20.360;2024-01-10T03:24:11;27.20;;;11.38;;
74541;SDS011;63015;45.378;20.360;2024-01-10T03:26:11;27.50;;;10.82;;
74541;SDS011;63015;45.378;20.360;2024-01-10T03:28:15;21.85;;;9.75;;
74541;SDS011;63015;45.378;20.360;2024-01-10T03:30:16;21.95;;;10.57;;
74541;SDS011;63015;45.378;20.360;2024-01-10T03:32:18;26.75;;;10.75;;
74541;SDS011;63015;45.378;20.360;2024-01-10T03:34:18;29.17;;;11.18;;
74541;SDS011;63015;45.378;20.360;2024-01-10T03:36:19;26.00;;;11.27;;
74541;SDS011;63015;45.378;20.360;2024-01-10T03:38:19;28.80;;;10.95;;
74541;SDS011;63015;45.378;20.360;2024-01-10T03:40:20;33.03;;;12.30;;
74541;SDS011;63015;45.378;20.360;2024-01-10T03:42:20;25.95;;;11.70;;
74541;SDS011;63015;45.378;20.360;2024-01-10T03:44:21;27.52;;;10.90;;
74541;SDS011;63015;45.378;20.360;2024-01-10T03:46:21;27.92;;;11.77;;
74541;SDS011;63015;45.378;20.360;2024-01-10T03:48:22;32.00;;;12.60;;
74541;SDS011;63015;45.378;20.360;2024-01-10T03:50:23;32.20;;;11.27;;
74541;SDS011;63015;45.378;20.360;2024-01-10T03:52:23;29.13;;;11.90;;
74541;SDS011;63015;45.378;20.360;2024-01-10T03:54:24;29.35;;;11.30;;
74541;SDS011;63015;45.378;20.360;2024-01-10T03:56:24;25.38;;;11.65;;
74541;SDS011;63015;45.378;20.360;2024-01-10T03:58:26;24.48;;;10.55;;
74541;SDS011;63015;45.378;20.360;2024-01-10T04:00:26;27.42;;;11.52;;
74541;SDS011;63015;45.378;20.360;2024-01-10T04:02:27;27.30;;;11.70;;
74541;SDS011;63015;45.378;20.360;2024-01-10T04:04:28;27.65;;;12.13;;
74541;SDS011;63015;45.378;20.360;2024-01-10T04:06:28;31.50;;;12.55;;
74541;SDS011;63015;45.378;20.360;2024-01-10T04:08:29;29.58;;;11.65;;
74541;SDS011;63015;45.378;20.360;2024-01-10T04:10:30;28.08;;;11.98;;
74541;SDS011;63015;45.378;20.360;2024-01-10T04:12:30;23.13;;;8.63;;
74541;SDS011;63015;45.378;20.360;2024-01-10T04:14:31;29.80;;;11.75;;
74541;SDS011;63015;45.378;20.360;2024-01-10T04:16:32;27.38;;;11.57;;
74541;SDS011;63015;45.378;20.360;2024-01-10T04:18:32;26.73;;;11.50;;
74541;SDS011;63015;45.378;20.360;2024-01-10T04:20:33;24.50;;;9.70;;
74541;SDS011;63015;45.378;20.360;2024-01-10T04:22:33;29.80;;;12.02;;
74541;SDS011;63015;45.378;20.360;2024-01-10T04:24:34;26.67;;;10.82;;
74541;SDS011;63015;45.378;20.360;2024-01-10T04:26:34;30.10;;;11.40;;
74541;SDS011;63015;45.378;20.360;2024-01-10T04:28:34;31.50;;;13.60;;
74541;SDS011;63015;45.378;20.360;2024-01-10T04:30:35;25.45;;;11.57;;
74541;SDS011;63015;45.378;20.360;2024-01-10T04:32:35;24.08;;;11.70;;
74541;SDS011;63015;45.378;20.360;2024-01-10T04:34:36;25.65;;;11.60;;
74541;SDS011;63015;45.378;20.360;2024-01-10T04:36:37;25.35;;;12.27;;
74541;SDS011;63015;45.378;20.360;2024-01-10T04:38:37;24.88;;;10.75;;
74541;SDS011;63015;45.378;20.360;2024-01-10T04:40:37;28.48;;;11.80;;
74541;SDS011;63015;45.378;20.360;2024-01-10T04:42:38;28.63;;;12.63;;
74541;SDS011;63015;45.378;20.360;2024-01-10T04:44:38;25.80;;;11.38;;
74541;SDS011;63015;45.378;20.360;2024-01-10T04:46:39;30.67;;;12.65;;
74541;SDS011;63015;45.378;20.360;2024-01-10T04:48:41;20.52;;;10.05;;
74541;SDS011;63015;45.378;20.360;2024-01-10T04:50:41;22.98;;;8.77;;
74541;SDS011;63015;45.378;20.360;2024-01-10T04:52:42;25.50;;;10.15;;
74541;SDS011;63015;45.378;20.360;2024-01-10T04:54:42;16.23;;;7.82;;
74541;SDS011;63015;45.378;20.360;2024-01-10T04:56:43;22.60;;;10.63;;
74541;SDS011;63015;45.378;20.360;2024-01-10T04:58:43;16.15;;;6.90;;
74541;SDS011;63015;45.378;20.360;2024-01-10T05:00:45;25.10;;;11.20;;
74541;SDS011;63015;45.378;20.360;2024-01-10T05:02:45;25.05;;;9.38;;
74541;SDS011;63015;45.378;20.360;2024-01-10T05:04:46;25.45;;;9.48;;
74541;SDS011;63015;45.378;20.360;2024-01-10T05:06:46;27.25;;;11.93;;
74541;SDS011;63015;45.378;20.360;2024-01-10T05:08:46;23.52;;;9.95;;
74541;SDS011;63015;45.378;20.360;2024-01-10T05:10:47;25.42;;;10.63;;
74541;SDS011;63015;45.378;20.360;2024-01-10T05:12:47;22.85;;;9.77;;
74541;SDS011;63015;45.378;20.360;2024-01-10T05:14:48;27.80;;;11.18;;
74541;SDS011;63015;45.378;20.360;2024-01-10T05:16:48;26.27;;;11.50;;
74541;SDS011;63015;45.378;20.360;2024-01-10T05:18:49;26.30;;;11.25;;
74541;SDS011;63015;45.378;20.360;2024-01-10T05:20:49;20.08;;;10.00;;
74541;SDS011;63015;45.378;20.360;2024-01-10T05:22:50;23.48;;;10.98;;
74541;SDS011;63015;45.378;20.360;2024-01-10T05:24:50;29.98;;;11.38;;
74541;SDS011;63015;45.378;20.360;2024-01-10T05:26:51;25.15;;;11.27;;
74541;SDS011;63015;45.378;20.360;2024-01-10T05:28:51;25.45;;;11.68;;
74541;SDS011;63015;45.378;20.360;2024-01-10T05:30:52;31.52;;;12.32;;
74541;SDS011;63015;45.378;20.360;2024-01-10T05:32:54;29.60;;;13.43;;
74541;SDS011;63015;45.378;20.360;2024-01-10T05:34:54;29.58;;;12.60;;
74541;SDS011;63015;45.378;20.360;2024-01-10T05:36:55;32.50;;;14.60;;
74541;SDS011;63015;45.378;20.360;2024-01-10T05:38:55;37.00;;;15.20;;
74541;SDS011;63015;45.378;20.360;2024-01-10T05:40:56;32.05;;;13.55;;
74541;SDS011;63015;45.378;20.360;2024-01-10T05:42:56;41.58;;;18.08;;
74541;SDS011;63015;45.378;20.360;2024-01-10T05:44:57;41.95;;;17.27;;
74541;SDS011;63015;45.378;20.360;2024-01-10T05:46:58;46.35;;;18.65;;
74541;SDS011;63015;45.378;20.360;2024-01-10T05:49:01;39.47;;;17.25;;
74541;SDS011;63015;45.378;20.360;2024-01-10T05:51:04;44.15;;;16.90;;
74541;SDS011;63015;45.378;20.360;2024-01-10T05:53:04;40.90;;;17.00;;
74541;SDS011;63015;45.378;20.360;2024-01-10T05:55:05;39.40;;;15.73;;
74541;SDS011;63015;45.378;20.360;2024-01-10T05:57:08;40.95;;;15.65;;
74541;SDS011;63015;45.378;20.360;2024-01-10T05:59:09;43.95;;;18.02;;
74541;SDS011;63015;45.378;20.360;2024-01-10T06:01:12;45.78;;;19.20;;
74541;SDS011;63015;45.378;20.360;2024-01-10T06:03:13;42.95;;;17.15;;
74541;SDS011;63015;45.378;20.360;2024-01-10T06:05:13;48.72;;;18.52;;
74541;SDS011;63015;45.378;20.360;2024-01-10T06:07:14;53.47;;;21.95;;
74541;SDS011;63015;45.378;20.360;2024-01-10T06:09:14;56.33;;;21.52;;
74541;SDS011;63015;45.378;20.360;2024-01-10T06:11:15;38.65;;;17.25;;
74541;SDS011;63015;45.378;20.360;2024-01-10T06:13:15;27.85;;;12.55;;
74541;SDS011;63015;45.378;20.360;2024-01-10T06:15:16;38.95;;;13.75;;
74541;SDS011;63015;45.378;20.360;2024-01-10T06:17:16;30.95;;;15.57;;
74541;SDS011;63015;45.378;20.360;2024-01-10T06:19:17;25.98;;;10.65;;
74541;SDS011;63015;45.378;20.360;2024-01-10T06:21:18;31.30;;;11.88;;
74541;SDS011;63015;45.378;20.360;2024-01-10T06:23:19;55.33;;;16.30;;
74541;SDS011;63015;45.378;20.360;2024-01-10T06:25:19;70.70;;;23.73;;
74541;SDS011;63015;45.378;20.360;2024-01-10T06:27:20;40.22;;;13.90;;
74541;SDS011;63015;45.378;20.360;2024-01-10T06:29:20;57.30;;;17.13;;
74541;SDS011;63015;45.378;20.360;2024-01-10T06:31:21;75.80;;;24.45;;
74541;SDS011;63015;45.378;20.360;2024-01-10T06:33:21;80.75;;;27.02;;
74541;SDS011;63015;45.378;20.360;2024-01-10T06:35:22;83.18;;;26.75;;
74541;SDS011;63015;45.378;20.360;2024-01-10T06:37:22;79.28;;;27.38;;
74541;SDS011;63015;45.378;20.360;2024-01-10T06:39:23;65.22;;;23.35;;
74541;SDS011;63015;45.378;20.360;2024-01-10T06:41:23;68.68;;;23.42;;
74541;SDS011;63015;45.378;20.360;2024-01-10T06:43:26;83.63;;;27.90;;
74541;SDS011;63015;45.378;20.360;2024-01-10T06:45:26;72.40;;;25.30;;
74541;SDS011;63015;45.378;20.360;2024-01-10T06:47:27;88.15;;;28.80;;
74541;SDS011;63015;45.378;20.360;2024-01-10T06:49:27;82.20;;;27.95;;
74541;SDS011;63015;45.378;20.360;2024-01-10T06:51:28;99.05;;;31.63;;
74541;SDS011;63015;45.378;20.360;2024-01-10T06:53:29;51.72;;;20.45;;
74541;SDS011;63015;45.378;20.360;2024-01-10T06:55:29;39.08;;;19.05;;
74541;SDS011;63015;45.378;20.360;2024-01-10T06:57:30;44.17;;;17.58;;
74541;SDS011;63015;45.378;20.360;2024-01-10T06:59:30;64.05;;;23.73;;
74541;SDS011;63015;45.378;20.360;2024-01-10T07:01:31;76.10;;;26.42;;
74541;SDS011;63015;45.378;20.360;2024-01-10T07:03:31;67.32;;;24.77;;
74541;SDS011;63015;45.378;20.360;2024-01-10T07:05:32;24.63;;;11.07;;
74541;SDS011;63015;45.378;20.360;2024-01-10T07:07:32;54.72;;;21.95;;
74541;SDS011;63015;45.378;20.360;2024-01-10T07:09:35;15.20;;;9.73;;
74541;SDS011;63015;45.378;20.360;2024-01-10T07:11:35;39.42;;;14.18;;
74541;SDS011;63015;45.378;20.360;2024-01-10T07:13:36;27.02;;;12.30;;
74541;SDS011;63015;45.378;20.360;2024-01-10T07:15:36;30.73;;;9.75;;
74541;SDS011;63015;45.378;20.360;2024-01-10T07:17:38;29.50;;;9.45;;
74541;SDS011;63015;45.378;20.360;2024-01-10T07:19:39;26.48;;;9.32;;
74541;SDS011;63015;45.378;20.360;2024-01-10T07:21:41;30.27;;;9.68;;
74541;SDS011;63015;45.378;20.360;2024-01-10T07:23:42;37.85;;;12.90;;
74541;SDS011;63015;45.378;20.360;2024-01-10T07:25:43;36.05;;;13.38;;
74541;SDS011;63015;45.378;20.360;2024-01-10T07:27:44;33.35;;;14.63;;
74541;SDS011;63015;45.378;20.360;2024-01-10T07:29:44;26.10;;;10.52;;
74541;SDS011;63015;45.378;20.360;2024-01-10T07:31:46;29.98;;;11.55;;
74541;SDS011;63015;45.378;20.360;2024-01-10T07:33:46;24.55;;;10.75;;
74541;SDS011;63015;45.378;20.360;2024-01-10T07:35:47;32.58;;;12.48;;
74541;SDS011;63015;45.378;20.360;2024-01-10T07:37:47;86.10;;;30.45;;
74541;SDS011;63015;45.378;20.360;2024-01-10T07:39:47;48.30;;;18.70;;
74541;SDS011;63015;45.378;20.360;2024-01-10T07:41:48;33.13;;;11.07;;
74541;SDS011;63015;45.378;20.360;2024-01-10T07:43:50;36.80;;;15.65;;
74541;SDS011;63015;45.378;20.360;2024-01-10T07:45:50;36.08;;;15.55;;
74541;SDS011;63015;45.378;20.360;2024-01-10T07:47:51;80.32;;;28.55;;
74541;SDS011;63015;45.378;20.360;2024-01-10T07:49:51;70.20;;;26.25;;
74541;SDS011;63015;45.378;20.360;2024-01-10T07:51:52;24.15;;;12.23;;
74541;SDS011;63015;45.378;20.360;2024-01-10T07:53:53;31.80;;;13.45;;
74541;SDS011;63015;45.378;20.360;2024-01-10T07:55:53;33.08;;;12.82;;
74541;SDS011;63015;45.378;20.360;2024-01-10T07:57:54;41.67;;;16.45;;
74541;SDS011;63015;45.378;20.360;2024-01-10T07:59:54;32.00;;;14.80;;
74541;SDS011;63015;45.378;20.360;2024-01-10T08:01:55;47.88;;;18.60;;
74541;SDS011;63015;45.378;20.360;2024-01-10T08:03:58;29.35;;;13.50;;
74541;SDS011;63015;45.378;20.360;2024-01-10T08:05:59;30.38;;;13.15;;
74541;SDS011;63015;45.378;20.360;2024-01-10T08:07:59;40.80;;;17.52;;
74541;SDS011;63015;45.378;20.360;2024-01-10T08:10:00;34.17;;;15.30;;
74541;SDS011;63015;45.378;20.360;2024-01-10T08:12:00;42.78;;;16.50;;
74541;SDS011;63015;45.378;20.360;2024-01-10T08:14:01;46.35;;;17.75;;
74541;SDS011;63015;45.378;20.360;2024-01-10T08:16:01;18.48;;;10.85;;
74541;SDS011;63015;45.378;20.360;2024-01-10T08:18:03;30.10;;;13.95;;
74541;SDS011;63015;45.378;20.360;2024-01-10T08:20:05;41.85;;;18.33;;
74541;SDS011;63015;45.378;20.360;2024-01-10T08:24:08;44.58;;;15.40;;
74541;SDS011;63015;45.378;20.360;2024-01-10T08:26:09;30.35;;;15.10;;
74541;SDS011;63015;45.378;20.360;2024-01-10T08:28:09;41.60;;;17.98;;
74541;SDS011;63015;45.378;20.360;2024-01-10T08:30:10;24.83;;;12.02;;
74541;SDS011;63015;45.378;20.360;2024-01-10T08:32:11;42.28;;;15.40;;
74541;SDS011;63015;45.378;20.360;2024-01-10T08:34:11;42.75;;;16.63;;
74541;SDS011;63015;45.378;20.360;2024-01-10T08:36:12;35.88;;;14.70;;
74541;SDS011;63015;45.378;20.360;2024-01-10T08:38:14;42.50;;;16.13;;
74541;SDS011;63015;45.378;20.360;2024-01-10T08:40:14;9.60;;;4.10;;
74541;SDS011;63015;45.378;20.360;2024-01-10T08:42:16;41.45;;;15.75;;
74541;SDS011;63015;45.378;20.360;2024-01-10T08:44:17;28.40;;;10.30;;
74541;SDS011;63015;45.378;20.360;2024-01-10T08:46:17;39.88;;;16.15;;
74541;SDS011;63015;45.378;20.360;2024-01-10T08:48:18;45.80;;;15.55;;
74541;SDS011;63015;45.378;20.360;2024-01-10T08:50:18;34.05;;;16.17;;
74541;SDS011;63015;45.378;20.360;2024-01-10T08:52:19;34.22;;;14.13;;
74541;SDS011;63015;45.378;20.360;2024-01-10T08:54:19;38.92;;;17.05;;
74541;SDS011;63015;45.378;20.360;2024-01-10T08:56:22;45.63;;;19.90;;
74541;SDS011;63015;45.378;20.360;2024-01-10T08:58:24;67.25;;;28.35;;
74541;SDS011;63015;45.378;20.360;2024-01-10T09:00:24;69.78;;;30.10;;
74541;SDS011;63015;45.378;20.360;2024-01-10T09:02:25;74.40;;;30.10;;
74541;SDS011;63015;45.378;20.360;2024-01-10T09:04:27;69.43;;;31.63;;
74541;SDS011;63015;45.378;20.360;2024-01-10T09:06:28;73.45;;;30.58;;
74541;SDS011;63015;45.378;20.360;2024-01-10T09:08:28;63.40;;;28.10;;
74541;SDS011;63015;45.378;20.360;2024-01-10T09:10:29;47.85;;;21.85;;
74541;SDS011;63015;45.378;20.360;2024-01-10T09:12:29;50.60;;;22.40;;
74541;SDS011;63015;45.378;20.360;2024-01-10T09:14:30;68.68;;;28.45;;
74541;SDS011;63015;45.378;20.360;2024-01-10T09:16:30;78.72;;;31.60;;
74541;SDS011;63015;45.378;20.360;2024-01-10T09:18:31;76.63;;;32.22;;
74541;SDS011;63015;45.378;20.360;2024-01-10T09:20:31;77.78;;;31.30;;
74541;SDS011;63015;45.378;20.360;2024-01-10T09:22:32;78.13;;;32.55;;
74541;SDS011;63015;45.378;20.360;2024-01-10T09:24:32;73.50;;;35.25;;
74541;SDS011;63015;45.378;20.360;2024-01-10T09:26:32;67.20;;;31.40;;
74541;SDS011;63015;45.378;20.360;2024-01-10T09:28:33;68.55;;;28.67;;
74541;SDS011;63015;45.378;20.360;2024-01-10T09:30:33;69.65;;;30.08;;
74541;SDS011;63015;45.378;20.360;2024-01-10T09:32:34;74.72;;;31.25;;
74541;SDS011;63015;45.378;20.360;2024-01-10T09:34:37;72.63;;;30.67;;
74541;SDS011;63015;45.378;20.360;2024-01-10T09:36:38;77.50;;;30.92;;
74541;SDS011;63015;45.378;20.360;2024-01-10T09:38:38;64.10;;;27.55;;
74541;SDS011;63015;45.378;20.360;2024-01-10T09:40:39;57.30;;;26.20;;
74541;SDS011;63015;45.378;20.360;2024-01-10T09:42:40;66.10;;;26.27;;
74541;SDS011;63015;45.378;20.360;2024-01-10T09:44:41;75.85;;;30.90;;
74541;SDS011;63015;45.378;20.360;2024-01-10T09:46:41;86.05;;;32.70;;
74541;SDS011;63015;45.378;20.360;2024-01-10T09:48:45;67.30;;;28.08;;
74541;SDS011;63015;45.378;20.360;2024-01-10T09:50:46;30.65;;;15.00;;
74541;SDS011;63015;45.378;20.360;2024-01-10T09:52:50;62.67;;;27.35;;
74541;SDS011;63015;45.378;20.360;2024-01-10T09:54:55;51.97;;;22.83;;
74541;SDS011;63015;45.378;20.360;2024-01-10T09:56:57;71.05;;;25.20;;
74541;SDS011;63015;45.378;20.360;2024-01-10T09:58:58;45.38;;;19.92;;
74541;SDS011;63015;45.378;20.360;2024-01-10T10:01:00;40.13;;;17.20;;
74541;SDS011;63015;45.378;20.360;2024-01-10T10:03:04;44.08;;;19.77;;
74541;SDS011;63015;45.378;20.360;2024-01-10T10:05:14;55.35;;;21.67;;
74541;SDS011;63015;45.378;20.360;2024-01-10T10:07:16;53.20;;;20.35;;
74541;SDS011;63015;45.378;20.360;2024-01-10T10:09:16;51.30;;;20.17;;
74541;SDS011;63015;45.378;20.360;2024-01-10T10:11:18;52.35;;;22.67;;
74541;SDS011;63015;45.378;20.360;2024-01-10T10:13:25;52.22;;;22.20;;
74541;SDS011;63015;45.378;20.360;2024-01-10T10:15:26;39.72;;;17.73;;
74541;SDS011;63015;45.378;20.360;2024-01-10T10:17:27;41.30;;;20.02;;
74541;SDS011;63015;45.378;20.360;2024-01-10T10:19:28;43.50;;;19.70;;
74541;SDS011;63015;45.378;20.360;2024-01-10T10:21:29;43.60;;;18.52;;
74541;SDS011;63015;45.378;20.360;2024-01-10T10:23:30;47.47;;;21.95;;
74541;SDS011;63015;45.378;20.360;2024-01-10T10:25:35;43.90;;;19.58;;
74541;SDS011;63015;45.378;20.360;2024-01-10T10:27:38;38.47;;;15.68;;
74541;SDS011;63015;45.378;20.360;2024-01-10T10:29:38;24.85;;;13.43;;
74541;SDS011;63015;45.378;20.360;2024-01-10T10:31:39;45.53;;;19.55;;
74541;SDS011;63015;45.378;20.360;2024-01-10T10:33:40;41.70;;;17.30;;
74541;SDS011;63015;45.378;20.360;2024-01-10T10:35:40;49.17;;;20.25;;
74541;SDS011;63015;45.378;20.360;2024-01-10T10:37:41;27.63;;;12.05;;
74541;SDS011;63015;45.378;20.360;2024-01-10T10:39:41;43.22;;;17.38;;
74541;SDS011;63015;45.378;20.360;2024-01-10T10:41:42;20.70;;;8.98;;
74541;SDS011;63015;45.378;20.360;2024-01-10T10:43:43;35.35;;;15.73;;
74541;SDS011;63015;45.378;20.360;2024-01-10T10:45:49;40.00;;;17.73;;
74541;SDS011;63015;45.378;20.360;2024-01-10T10:47:53;30.05;;;12.90;;
74541;SDS011;63015;45.378;20.360;2024-01-10T10:49:57;37.42;;;15.70;;
74541;SDS011;63015;45.378;20.360;2024-01-10T10:52:02;20.70;;;8.50;;
74541;SDS011;63015;45.378;20.360;2024-01-10T10:54:06;44.88;;;16.30;;
74541;SDS011;63015;45.378;20.360;2024-01-10T10:56:08;32.72;;;15.30;;
74541;SDS011;63015;45.378;20.360;2024-01-10T10:58:08;34.22;;;13.85;;
74541;SDS011;63015;45.378;20.360;2024-01-10T11:00:10;33.53;;;14.20;;
74541;SDS011;63015;45.378;20.360;2024-01-10T11:02:16;33.20;;;14.70;;
74541;SDS011;63015;45.378;20.360;2024-01-10T11:04:23;30.88;;;12.35;;
74541;SDS011;63015;45.378;20.360;2024-01-10T11:06:24;29.05;;;12.93;;
74541;SDS011;63015;45.378;20.360;2024-01-10T11:08:24;33.53;;;15.65;;
74541;SDS011;63015;45.378;20.360;2024-01-10T11:10:30;34.13;;;14.95;;
74541;SDS011;63015;45.378;20.360;2024-01-10T11:12:55;26.92;;;11.07;;
74541;SDS011;63015;45.378;20.360;2024-01-10T11:17:26;31.08;;;13.00;;
74541;SDS011;63015;45.378;20.360;2024-01-10T11:24:21;38.40;;;14.32;;
74541;SDS011;63015;45.378;20.360;2024-01-10T11:26:22;19.63;;;9.25;;
74541;SDS011;63015;45.378;20.360;2024-01-10T11:28:24;33.92;;;12.60;;
74541;SDS011;63015;45.378;20.360;2024-01-10T11:30:34;38.15;;;15.98;;
74541;SDS011;63015;45.378;20.360;2024-01-10T11:32:35;33.15;;;12.90;;
74541;SDS011;63015;45.378;20.360;2024-01-10T11:34:35;31.02;;;14.10;;
74541;SDS011;63015;45.378;20.360;2024-01-10T11:36:36;21.67;;;8.95;;
74541;SDS011;63015;45.378;20.360;2024-01-10T11:40:54;20.88;;;9.23;;
74541;SDS011;63015;45.378;20.360;2024-01-10T11:42:57;30.83;;;12.95;;
74541;SDS011;63015;45.378;20.360;2024-01-10T11:44:58;40.40;;;13.93;;
74541;SDS011;63015;45.378;20.360;2024-01-10T11:47:00;32.15;;;12.13;;
74541;SDS011;63015;45.378;20.360;2024-01-10T11:49:06;20.10;;;8.40;;